Time;durP1;ratioP1;P1;durP2;ratioP2;P2;SDS_P1;SDS_P2;PMS_P1;PMS_P2;Temp;Humidity;BMP_temperature;BMP_pressure;BME280_temperature;BME280_humidity;BME280_pressure;Samples;Min_cycle;Max_cycle;Signal;HPM_P1;HPM_P2
2022/03/08 00:01:35;;;;;;;7.30;5.47;;;;;;;;;;6073314;23;20183;-80
2022/03/08 00:04:03;;;;;;;3.50;3.13;;;;;;;;;;6073179;23;20204;-80
2022/03/08 00:06:31;;;;;;;7.23;4.53;;;;;;;;;;6073362;23;20173;-80
2022/03/08 00:09:00;;;;;;;5.17;4.03;;;;;;;;;;6072664;23;20211;-80
2022/03/08 00:11:30;;;;;;;8.93;5.53;;;;;;;;;;6098486;23;20185;-80
2022/03/08 00:13:58;;;;;;;6.77;6.07;;;;;;;;;;6098580;23;20196;-80
2022/03/08 00:16:27;;;;;;;7.17;4.80;;;;;;;;;;6098176;23;20184;-81
2022/03/08 00:18:55;;;;;;;7.33;4.50;;;;;;;;;;6073302;23;20198;-80
2022/03/08 00:21:24;;;;;;;5.20;4.17;;;;;;;;;;6098117;23;20256;-80
2022/03/08 00:23:52;;;;;;;10.53;6.20;;;;;;;;;;6073150;23;20190;-80
2022/03/08 00:26:20;;;;;;;11.03;7.33;;;;;;;;;;6098245;23;20181;-80
2022/03/08 00:28:50;;;;;;;7.33;5.53;;;;;;;;;;6098610;23;20184;-80
2022/03/08 00:31:19;;;;;;;8.43;6.53;;;;;;;;;;6072604;23;20191;-80
2022/03/08 00:33:47;;;;;;;7.20;5.30;;;;;;;;;;6072691;23;20180;-80
2022/03/08 00:36:16;;;;;;;5.87;5.27;;;;;;;;;;6098332;23;20294;-80
2022/03/08 00:38:44;;;;;;;6.67;5.83;;;;;;;;;;6096834;23;20180;-80
2022/03/08 00:41:12;;;;;;;13.43;7.07;;;;;;;;;;6098455;23;20231;-80
2022/03/08 00:43:41;;;;;;;8.20;5.60;;;;;;;;;;6097939;23;20224;-80
2022/03/08 00:46:10;;;;;;;6.07;4.73;;;;;;;;;;6098289;23;20177;-81
2022/03/08 00:48:39;;;;;;;5.27;4.67;;;;;;;;;;6072733;23;20187;-80
2022/03/08 00:51:08;;;;;;;7.20;4.37;;;;;;;;;;6072693;23;20177;-81
2022/03/08 00:53:36;;;;;;;5.63;5.13;;;;;;;;;;6073049;23;20179;-80
2022/03/08 00:56:05;;;;;;;7.00;4.80;;;;;;;;;;6097905;23;20173;-80
2022/03/08 00:58:36;;;;;;;5.30;4.97;;;;;;;;;;6072304;23;20176;-80
2022/03/08 01:01:05;;;;;;;2.37;2.13;;;;;;;;;;6072073;23;20196;-80
2022/03/08 01:03:35;;;;;;;3.90;1.90;;;;;;;;;;6071939;23;20197;-80
2022/03/08 01:06:03;;;;;;;9.13;6.67;;;;;;;;;;6071706;23;20174;-80
2022/03/08 01:08:31;;;;;;;5.63;4.70;;;;;;;;;;6071666;23;20219;-80
2022/03/08 01:11:00;;;;;;;6.37;3.23;;;;;;;;;;6096562;23;20180;-80
2022/03/08 01:13:28;;;;;;;6.37;4.80;;;;;;;;;;6071632;23;20184;-80
2022/03/08 01:15:57;;;;;;;4.57;4.17;;;;;;;;;;6097739;23;20199;-80
2022/03/08 01:18:26;;;;;;;6.47;4.93;;;;;;;;;;6072237;23;20238;-80
2022/03/08 01:20:56;;;;;;;6.43;4.13;;;;;;;;;;6072218;23;20205;-80
2022/03/08 01:23:24;;;;;;;4.20;3.60;;;;;;;;;;6095998;23;20206;-80
2022/03/08 01:25:52;;;;;;;7.00;5.97;;;;;;;;;;6072653;23;20181;-80
2022/03/08 01:28:21;;;;;;;4.60;3.40;;;;;;;;;;6096225;23;20241;-80
2022/03/08 01:30:49;;;;;;;8.00;5.47;;;;;;;;;;6072671;23;20186;-80
2022/03/08 01:33:18;;;;;;;7.50;5.23;;;;;;;;;;6096182;23;20237;-80
2022/03/08 01:35:46;;;;;;;5.17;3.97;;;;;;;;;;6097606;23;20203;-80
2022/03/08 01:38:16;;;;;;;9.80;6.23;;;;;;;;;;6072966;23;20181;-80
2022/03/08 01:40:44;;;;;;;6.63;5.33;;;;;;;;;;6072373;23;20206;-80
2022/03/08 01:43:13;;;;;;;4.77;4.37;;;;;;;;;;6096751;23;20244;-80
2022/03/08 01:45:42;;;;;;;3.47;2.77;;;;;;;;;;6072225;23;20189;-80
2022/03/08 01:48:11;;;;;;;2.63;2.40;;;;;;;;;;6097387;23;20186;-80
2022/03/08 01:50:39;;;;;;;3.43;3.17;;;;;;;;;;6072106;23;20179;-80
2022/03/08 01:53:08;;;;;;;4.03;2.40;;;;;;;;;;6097801;23;20180;-80
2022/03/08 01:55:38;;;;;;;2.73;2.30;;;;;;;;;;6097473;23;20173;-80
2022/03/08 01:58:06;;;;;;;3.13;2.83;;;;;;;;;;6071663;23;20264;-80
2022/03/08 02:00:35;;;;;;;7.37;5.00;;;;;;;;;;6071849;23;20199;-80
2022/03/08 02:03:03;;;;;;;7.50;5.33;;;;;;;;;;6072487;23;20196;-80
2022/03/08 02:05:32;;;;;;;4.93;4.53;;;;;;;;;;6072015;23;20181;-80
2022/03/08 02:08:01;;;;;;;3.00;2.37;;;;;;;;;;6071967;23;20217;-80
2022/03/08 02:10:29;;;;;;;4.20;3.80;;;;;;;;;;6072368;23;20200;-81
2022/03/08 02:12:59;;;;;;;3.37;3.17;;;;;;;;;;6097613;23;20197;-80
2022/03/08 02:15:28;;;;;;;2.33;2.23;;;;;;;;;;6071229;23;20280;-80
2022/03/08 02:17:57;;;;;;;2.50;2.30;;;;;;;;;;6071776;23;20207;-80
2022/03/08 02:20:26;;;;;;;3.07;2.87;;;;;;;;;;6072105;23;20201;-80
2022/03/08 02:22:56;;;;;;;3.27;2.90;;;;;;;;;;6096950;23;20183;-80
2022/03/08 02:25:25;;;;;;;5.70;4.73;;;;;;;;;;6097129;23;20168;-80
2022/03/08 02:27:54;;;;;;;2.87;2.67;;;;;;;;;;6071709;23;20263;-80
2022/03/08 02:30:24;;;;;;;5.77;4.10;;;;;;;;;;6096616;23;20200;-80
2022/03/08 02:32:53;;;;;;;3.57;3.27;;;;;;;;;;6097344;23;20175;-80
2022/03/08 02:35:22;;;;;;;5.80;5.20;;;;;;;;;;6071933;23;20181;-80
2022/03/08 02:37:52;;;;;;;4.00;3.70;;;;;;;;;;6097180;23;20190;-80
2022/03/08 02:40:23;;;;;;;8.00;4.47;;;;;;;;;;6096798;23;20192;-80
2022/03/08 02:42:52;;;;;;;5.87;4.97;;;;;;;;;;6071668;23;20248;-80
2022/03/08 02:45:21;;;;;;;5.10;4.60;;;;;;;;;;6071769;23;20186;-80
2022/03/08 02:47:50;;;;;;;7.07;4.23;;;;;;;;;;6071471;23;20173;-80
2022/03/08 02:50:18;;;;;;;7.97;5.27;;;;;;;;;;6096995;23;20220;-80
2022/03/08 02:52:51;;;;;;;9.83;6.37;;;;;;;;;;6071478;23;20184;-80
2022/03/08 02:55:21;;;;;;;12.03;4.83;;;;;;;;;;6071450;23;20183;-81
2022/03/08 02:57:51;;;;;;;5.33;4.87;;;;;;;;;;6096883;23;20175;-80
2022/03/08 03:02:55;;;;;;;2.10;1.90;;;;;;;;;;6110212;23;20291;-80
2022/03/08 03:05:24;;;;;;;5.60;4.17;;;;;;;;;;6069941;23;20180;-80
2022/03/08 03:07:53;;;;;;;5.47;4.20;;;;;;;;;;6096107;23;20201;-80
2022/03/08 03:10:21;;;;;;;4.37;4.07;;;;;;;;;;6070379;23;20181;-80
2022/03/08 03:12:52;;;;;;;6.70;6.00;;;;;;;;;;6070510;23;20181;-79
2022/03/08 03:15:21;;;;;;;3.00;2.73;;;;;;;;;;6070575;23;20173;-81
2022/03/08 03:17:50;;;;;;;3.33;3.03;;;;;;;;;;6070555;23;20200;-80
2022/03/08 03:20:19;;;;;;;4.30;3.93;;;;;;;;;;6070990;23;20200;-80
2022/03/08 03:22:49;;;;;;;3.50;3.03;;;;;;;;;;6070901;23;20201;-80
2022/03/08 03:25:17;;;;;;;2.40;2.20;;;;;;;;;;6070819;23;20186;-80
2022/03/08 03:27:46;;;;;;;4.37;4.03;;;;;;;;;;6070886;23;20179;-80
2022/03/08 03:30:18;;;;;;;8.57;4.87;;;;;;;;;;6096654;23;20204;-80
2022/03/08 03:32:46;;;;;;;3.97;2.93;;;;;;;;;;6070812;23;20179;-80
2022/03/08 03:35:16;;;;;;;5.50;4.53;;;;;;;;;;6070770;23;20178;-80
2022/03/08 03:37:44;;;;;;;4.33;4.03;;;;;;;;;;6094365;23;20190;-80
2022/03/08 03:40:13;;;;;;;5.43;4.60;;;;;;;;;;6070595;23;20185;-79
2022/03/08 03:42:42;;;;;;;5.70;4.43;;;;;;;;;;6070497;23;20203;-80
2022/03/08 03:45:11;;;;;;;4.13;3.80;;;;;;;;;;6070602;23;20230;-80
2022/03/08 03:47:41;;;;;;;4.97;4.40;;;;;;;;;;6070403;23;20191;-80
2022/03/08 03:50:10;;;;;;;9.10;5.63;;;;;;;;;;6070946;23;20243;-80
2022/03/08 03:52:39;;;;;;;5.70;4.80;;;;;;;;;;6070295;23;20183;-79
2022/03/08 03:55:11;;;;;;;10.73;6.70;;;;;;;;;;6070818;23;20184;-80
2022/03/08 03:57:40;;;;;;;10.10;7.17;;;;;;;;;;6070499;23;20183;-80
2022/03/08 04:00:09;;;;;;;8.97;7.10;;;;;;;;;;6070704;23;20188;-80
2022/03/08 04:02:37;;;;;;;9.20;6.80;;;;;;;;;;6070523;23;20205;-79
2022/03/08 04:05:08;;;;;;;7.60;5.87;;;;;;;;;;6065159;23;20303;-80
2022/03/08 04:07:37;;;;;;;8.30;7.33;;;;;;;;;;6067212;23;20199;-80
2022/03/08 04:10:05;;;;;;;5.57;5.03;;;;;;;;;;6042230;23;20251;-80
2022/03/08 04:12:34;;;;;;;7.87;7.07;;;;;;;;;;6041930;23;20177;-80
2022/03/08 04:15:02;;;;;;;9.57;5.87;;;;;;;;;;6067191;23;20220;-79
2022/03/08 04:17:31;;;;;;;10.53;5.83;;;;;;;;;;6065202;23;20177;-80
2022/03/08 04:19:59;;;;;;;8.87;7.00;;;;;;;;;;6041840;23;20247;-79
2022/03/08 04:22:29;;;;;;;8.83;6.20;;;;;;;;;;6041961;23;20206;-80
2022/03/08 04:24:58;;;;;;;6.83;5.83;;;;;;;;;;6043411;23;20194;-79
2022/03/08 04:27:26;;;;;;;10.73;7.93;;;;;;;;;;6043230;23;20184;-80
2022/03/08 04:29:55;;;;;;;8.77;6.53;;;;;;;;;;6068646;23;20173;-79
2022/03/08 04:32:23;;;;;;;8.23;6.23;;;;;;;;;;6068789;23;20172;-79
2022/03/08 04:34:52;;;;;;;8.40;6.13;;;;;;;;;;6043265;23;20174;-80
2022/03/08 04:37:20;;;;;;;9.33;5.97;;;;;;;;;;6067411;23;20189;-79
2022/03/08 04:39:50;;;;;;;9.17;4.60;;;;;;;;;;6042921;23;20236;-80
2022/03/08 04:42:19;;;;;;;6.43;5.83;;;;;;;;;;6043571;23;20258;-80
2022/03/08 04:44:47;;;;;;;11.80;7.43;;;;;;;;;;6067382;23;20263;-80
2022/03/08 04:47:15;;;;;;;3.43;3.13;;;;;;;;;;6068727;23;20254;-80
2022/03/08 04:49:44;;;;;;;7.23;5.67;;;;;;;;;;6067059;23;20187;-79
2022/03/08 04:52:12;;;;;;;4.63;4.20;;;;;;;;;;6042947;23;20197;-80
2022/03/08 04:54:41;;;;;;;9.00;5.63;;;;;;;;;;6068701;23;20180;-80
2022/03/08 04:57:10;;;;;;;5.37;4.77;;;;;;;;;;6043201;23;20185;-79
2022/03/08 04:59:39;;;;;;;6.97;6.23;;;;;;;;;;6068401;23;20350;-80
2022/03/08 05:02:07;;;;;;;3.67;3.20;;;;;;;;;;6068308;23;20195;-79
2022/03/08 05:04:36;;;;;;;5.80;5.13;;;;;;;;;;6042453;23;20216;-80
2022/03/08 05:07:04;;;;;;;2.80;2.60;;;;;;;;;;6043025;23;20256;-80
2022/03/08 05:09:32;;;;;;;6.10;4.10;;;;;;;;;;6042954;23;20174;-80
2022/03/08 05:12:01;;;;;;;5.67;5.17;;;;;;;;;;6068481;23;20176;-80
2022/03/08 05:14:31;;;;;;;7.33;4.93;;;;;;;;;;6068439;23;20186;-80
2022/03/08 05:16:59;;;;;;;5.00;4.53;;;;;;;;;;6043317;23;20195;-80
2022/03/08 05:19:28;;;;;;;5.90;5.23;;;;;;;;;;6067936;23;20175;-80
2022/03/08 05:21:56;;;;;;;4.70;4.10;;;;;;;;;;6068286;23;20192;-80
2022/03/08 05:24:25;;;;;;;6.43;5.10;;;;;;;;;;6068393;23;20180;-80
2022/03/08 05:26:53;;;;;;;6.53;5.03;;;;;;;;;;6043181;23;20184;-80
2022/03/08 05:29:22;;;;;;;4.03;3.47;;;;;;;;;;6043483;23;20183;-79
2022/03/08 05:31:51;;;;;;;5.53;4.87;;;;;;;;;;6043183;23;20184;-80
2022/03/08 05:34:20;;;;;;;6.70;4.57;;;;;;;;;;6066802;23;20187;-80
2022/03/08 05:36:48;;;;;;;5.13;4.63;;;;;;;;;;6067866;23;20184;-80
2022/03/08 05:39:17;;;;;;;5.87;5.33;;;;;;;;;;6067976;23;20202;-80
2022/03/08 05:41:46;;;;;;;6.37;5.30;;;;;;;;;;6066750;23;20203;-79
2022/03/08 05:44:14;;;;;;;3.83;3.50;;;;;;;;;;6042648;23;20180;-80
2022/03/08 05:46:43;;;;;;;5.73;5.13;;;;;;;;;;6066558;23;20184;-80
2022/03/08 05:49:13;;;;;;;5.93;4.47;;;;;;;;;;6042852;23;20192;-80
2022/03/08 05:51:42;;;;;;;5.13;3.77;;;;;;;;;;6043270;23;20177;-80
2022/03/08 05:54:11;;;;;;;5.80;5.10;;;;;;;;;;6066686;23;20194;-79
2022/03/08 05:56:39;;;;;;;5.70;4.50;;;;;;;;;;6042974;23;20184;-79
2022/03/08 05:59:08;;;;;;;6.23;5.63;;;;;;;;;;6043382;23;20176;-80
2022/03/08 06:01:36;;;;;;;6.53;5.73;;;;;;;;;;6042642;23;20183;-80
2022/03/08 06:04:05;;;;;;;9.00;6.03;;;;;;;;;;6042535;23;20211;-79
2022/03/08 06:06:35;;;;;;;5.57;4.93;;;;;;;;;;6042989;23;20243;-80
2022/03/08 06:09:03;;;;;;;7.33;5.27;;;;;;;;;;6042756;23;20184;-80
2022/03/08 06:11:32;;;;;;;4.83;4.27;;;;;;;;;;6066611;23;20183;-79
2022/03/08 06:14:00;;;;;;;5.43;4.93;;;;;;;;;;6067537;23;20178;-81
2022/03/08 06:16:28;;;;;;;5.43;4.23;;;;;;;;;;6042544;23;20183;-80
2022/03/08 06:18:58;;;;;;;8.60;6.13;;;;;;;;;;6042460;23;20177;-80
2022/03/08 06:21:34;;;;;;;10.07;6.70;;;;;;;;;;6042287;23;20186;-80
2022/03/08 06:24:03;;;;;;;4.33;3.63;;;;;;;;;;6042200;23;20268;-80
2022/03/08 06:26:32;;;;;;;4.23;3.83;;;;;;;;;;6042094;23;20175;-80
2022/03/08 06:29:00;;;;;;;9.57;5.60;;;;;;;;;;6066249;23;20184;-80
2022/03/08 06:31:29;;;;;;;5.57;5.10;;;;;;;;;;6066187;23;20176;-80
2022/03/08 06:33:57;;;;;;;6.20;5.60;;;;;;;;;;6042301;23;20186;-80
2022/03/08 06:36:30;;;;;;;9.10;6.67;;;;;;;;;;6066172;23;20211;-80
2022/03/08 06:38:58;;;;;;;12.40;5.70;;;;;;;;;;6067883;23;20177;-80
2022/03/08 06:41:28;;;;;;;6.90;5.23;;;;;;;;;;6042187;23;20176;-80
2022/03/08 06:43:56;;;;;;;4.50;4.10;;;;;;;;;;6042570;23;20202;-80
2022/03/08 06:46:25;;;;;;;6.10;5.47;;;;;;;;;;6067094;23;20182;-80
2022/03/08 06:48:54;;;;;;;5.60;4.90;;;;;;;;;;6067339;23;20175;-80
2022/03/08 06:51:22;;;;;;;6.90;5.40;;;;;;;;;;6067686;23;20176;-80
2022/03/08 06:53:51;;;;;;;5.60;5.10;;;;;;;;;;6042420;23;20180;-80
2022/03/08 06:56:19;;;;;;;4.67;4.27;;;;;;;;;;6067778;23;20173;-80
2022/03/08 06:58:49;;;;;;;6.00;5.20;;;;;;;;;;6042120;23;20181;-80
2022/03/08 07:01:17;;;;;;;8.00;5.30;;;;;;;;;;6067433;23;20235;-80
2022/03/08 07:03:46;;;;;;;7.50;5.07;;;;;;;;;;6038737;23;20244;-80
2022/03/08 07:06:14;;;;;;;5.60;5.03;;;;;;;;;;6013699;23;20207;-80
2022/03/08 07:08:43;;;;;;;6.23;5.27;;;;;;;;;;6013443;23;20178;-80
2022/03/08 07:11:11;;;;;;;5.07;4.47;;;;;;;;;;6014036;23;20199;-80
2022/03/08 07:13:40;;;;;;;4.80;4.30;;;;;;;;;;6038504;23;20170;-79
2022/03/08 07:16:10;;;;;;;6.37;5.13;;;;;;;;;;6037311;23;20178;-80
2022/03/08 07:18:38;;;;;;;4.50;4.10;;;;;;;;;;6013353;23;20261;-80
2022/03/08 07:21:07;;;;;;;6.50;5.77;;;;;;;;;;6013723;23;20226;-80
2022/03/08 07:23:35;;;;;;;3.90;3.57;;;;;;;;;;6013360;23;20219;-80
2022/03/08 07:26:04;;;;;;;7.53;6.03;;;;;;;;;;6038505;23;20185;-80
2022/03/08 07:28:32;;;;;;;8.23;6.17;;;;;;;;;;6013514;23;20183;-80
2022/03/08 07:31:01;;;;;;;5.70;5.00;;;;;;;;;;6014056;23;20187;-79
2022/03/08 07:33:32;;;;;;;5.47;3.97;;;;;;;;;;6013931;23;20206;-80
2022/03/08 07:36:02;;;;;;;6.27;4.17;;;;;;;;;;6038430;23;20193;-80
2022/03/08 07:38:30;;;;;;;7.57;5.00;;;;;;;;;;6013611;23;20186;-80
2022/03/08 07:41:02;;;;;;;3.80;3.43;;;;;;;;;;6013522;23;20179;-80
2022/03/08 07:43:34;;;;;;;5.70;5.13;;;;;;;;;;6013597;23;20207;-80
2022/03/08 07:46:02;;;;;;;6.53;5.80;;;;;;;;;;6038116;23;20175;-80
2022/03/08 07:48:32;;;;;;;6.03;5.40;;;;;;;;;;6038423;23;20181;-80
2022/03/08 07:51:01;;;;;;;7.50;5.40;;;;;;;;;;6038681;23;20174;-80
2022/03/08 07:53:30;;;;;;;3.70;3.40;;;;;;;;;;6038662;23;20206;-80
2022/03/08 07:55:59;;;;;;;3.60;3.30;;;;;;;;;;6013881;23;20189;-80
2022/03/08 07:58:27;;;;;;;5.33;4.67;;;;;;;;;;6015142;23;20205;-80
2022/03/08 08:00:56;;;;;;;6.93;4.93;;;;;;;;;;6040068;23;20174;-80
2022/03/08 08:03:26;;;;;;;5.37;3.93;;;;;;;;;;6015610;23;20238;-80
2022/03/08 08:05:56;;;;;;;6.27;5.73;;;;;;;;;;6042570;23;20213;-80
2022/03/08 08:08:25;;;;;;;5.80;4.37;;;;;;;;;;6044049;23;20182;-80
2022/03/08 08:10:54;;;;;;;6.10;5.50;;;;;;;;;;6043396;23;20184;-83
2022/03/08 08:13:24;;;;;;;5.90;5.23;;;;;;;;;;6043870;23;20197;-80
2022/03/08 08:15:52;;;;;;;7.57;5.23;;;;;;;;;;6043548;23;20194;-80
2022/03/08 08:18:21;;;;;;;6.20;5.60;;;;;;;;;;6043806;23;20241;-80
2022/03/08 08:20:50;;;;;;;5.00;4.50;;;;;;;;;;6043583;23;20185;-81
2022/03/08 08:23:20;;;;;;;4.73;4.23;;;;;;;;;;6067578;23;20199;-81
2022/03/08 08:25:49;;;;;;;5.80;5.30;;;;;;;;;;6043554;23;20323;-81
2022/03/08 08:28:17;;;;;;;8.00;6.30;;;;;;;;;;6056176;23;20177;-80
2022/03/08 08:30:46;;;;;;;6.87;4.97;;;;;;;;;;6068725;23;20181;-81
2022/03/08 08:33:15;;;;;;;7.17;6.47;;;;;;;;;;6043377;23;20185;-80
2022/03/08 08:35:46;;;;;;;6.67;5.73;;;;;;;;;;6042677;23;20178;-80
2022/03/08 08:38:15;;;;;;;7.33;5.87;;;;;;;;;;6038543;23;20174;-88
2022/03/08 08:40:48;;;;;;;4.40;4.00;;;;;;;;;;6040237;23;20237;-84
2022/03/08 08:43:17;;;;;;;5.87;5.37;;;;;;;;;;6042789;23;20189;-83
2022/03/08 08:45:51;;;;;;;3.93;3.63;;;;;;;;;;6042547;23;20181;-87
2022/03/08 08:48:27;;;;;;;6.00;5.33;;;;;;;;;;6033477;23;20178;-87
2022/03/08 08:50:59;;;;;;;7.73;6.13;;;;;;;;;;6066846;23;20182;-87
2022/03/08 08:53:32;;;;;;;6.77;5.40;;;;;;;;;;6044439;23;20201;-87
2022/03/08 08:56:03;;;;;;;5.43;4.93;;;;;;;;;;6042619;23;20182;-87
2022/03/08 08:58:35;;;;;;;5.73;4.60;;;;;;;;;;6044097;23;20177;-88
2022/03/08 09:01:04;;;;;;;5.97;5.13;;;;;;;;;;6042335;23;20205;-88
2022/03/08 09:03:38;;;;;;;6.63;5.90;;;;;;;;;;6042662;23;20206;-86
2022/03/08 09:06:09;;;;;;;7.53;5.60;;;;;;;;;;6042743;23;20209;-86
2022/03/08 09:08:41;;;;;;;6.33;5.73;;;;;;;;;;6043915;23;20178;-87
2022/03/08 09:11:17;;;;;;;4.50;4.17;;;;;;;;;;6066700;23;20185;-86
2022/03/08 09:13:49;;;;;;;6.37;5.77;;;;;;;;;;6043960;23;20181;-86
2022/03/08 09:16:19;;;;;;;5.97;5.47;;;;;;;;;;6042643;23;20261;-85
2022/03/08 09:18:56;;;;;;;9.10;4.73;;;;;;;;;;6042194;23;20192;-87
2022/03/08 09:21:25;;;;;;;6.63;6.03;;;;;;;;;;6042144;23;20200;-86
2022/03/08 09:23:56;;;;;;;8.70;5.83;;;;;;;;;;6042636;23;20201;-87
2022/03/08 09:26:26;;;;;;;6.83;6.13;;;;;;;;;;6042555;23;20179;-88
2022/03/08 09:29:03;;;;;;;5.47;4.43;;;;;;;;;;6041821;23;20186;-85
2022/03/08 09:31:38;;;;;;;6.13;5.53;;;;;;;;;;6066756;23;20178;-87
2022/03/08 09:34:12;;;;;;;7.20;4.80;;;;;;;;;;6042645;23;20178;-89
2022/03/08 09:36:46;;;;;;;5.13;4.63;;;;;;;;;;6043080;23;20240;-88
2022/03/08 09:39:21;;;;;;;5.73;5.03;;;;;;;;;;6066961;23;20178;-88
2022/03/08 09:41:55;;;;;;;5.13;4.37;;;;;;;;;;6042777;23;20182;-86
2022/03/08 09:44:28;;;;;;;4.20;3.20;;;;;;;;;;6043391;23;20201;-88
2022/03/08 09:47:05;;;;;;;7.63;4.83;;;;;;;;;;6047804;23;20248;-87
2022/03/08 09:49:45;;;;;;;4.60;4.13;;;;;;;;;;6041354;23;20178;-87
2022/03/08 09:52:21;;;;;;;4.37;3.97;;;;;;;;;;6067182;23;20185;-88
2022/03/08 09:54:53;;;;;;;4.43;3.57;;;;;;;;;;6043975;23;20175;-88
2022/03/08 09:57:31;;;;;;;5.87;3.80;;;;;;;;;;6042931;23;20182;-86
2022/03/08 10:00:10;;;;;;;4.37;3.33;;;;;;;;;;6042270;23;20179;-87
2022/03/08 10:02:46;;;;;;;9.17;4.97;;;;;;;;;;6042083;23;20220;-88
2022/03/08 10:05:39;;;;;;;6.73;5.33;;;;;;;;;;6067177;23;20213;-87
2022/03/08 10:08:22;;;;;;;5.33;4.77;;;;;;;;;;6065756;23;20195;-86
2022/03/08 10:10:59;;;;;;;4.20;3.90;;;;;;;;;;6041880;23;20186;-86
2022/03/08 10:14:13;;;;;;;3.83;3.53;;;;;;;;;;6038791;23;20214;-88
2022/03/08 10:16:52;;;;;;;5.07;4.50;;;;;;;;;;6043816;23;20181;-87
2022/03/08 10:19:51;;;;;;;2.60;2.40;;;;;;;;;;6034700;23;20186;-86
2022/03/08 10:22:25;;;;;;;7.50;4.90;;;;;;;;;;6067186;23;20181;-88
2022/03/08 10:25:12;;;;;;;4.47;3.77;;;;;;;;;;6066296;23;20201;-89
2022/03/08 10:27:45;;;;;;;6.87;5.50;;;;;;;;;;6056382;23;20213;-87
2022/03/08 10:30:19;;;;;;;3.70;3.40;;;;;;;;;;6043434;23;20178;-87
2022/03/08 10:33:07;;;;;;;5.20;2.93;;;;;;;;;;6042603;23;20188;-88
2022/03/08 10:35:53;;;;;;;4.93;4.47;;;;;;;;;;6042888;23;20189;-88
2022/03/08 10:38:29;;;;;;;3.40;2.70;;;;;;;;;;6045137;23;20193;-87
2022/03/08 10:41:25;;;;;;;4.83;3.97;;;;;;;;;;6043705;23;20196;-85
2022/03/08 10:44:09;;;;;;;7.43;4.60;;;;;;;;;;6046723;23;20183;-87
2022/03/08 10:47:06;;;;;;;4.23;3.73;;;;;;;;;;6068402;23;20182;-85
2022/03/08 10:49:50;;;;;;;2.27;2.07;;;;;;;;;;6047146;23;20207;-84
2022/03/08 10:52:32;;;;;;;3.77;3.47;;;;;;;;;;6048864;23;20238;-84
2022/03/08 10:55:16;;;;;;;6.30;3.17;;;;;;;;;;6048389;23;20185;-84
2022/03/08 10:57:55;;;;;;;4.37;2.83;;;;;;;;;;6046817;23;20180;-84
2022/03/08 11:00:32;;;;;;;3.07;2.43;;;;;;;;;;6069410;23;20179;-82
2022/03/08 11:03:06;;;;;;;7.53;5.93;;;;;;;;;;6067650;23;20272;-83
2022/03/08 11:05:49;;;;;;;5.30;4.20;;;;;;;;;;6045521;23;20241;-83
2022/03/08 11:11:45;;;;;;;5.47;4.93;;;;;;;;;;6041446;23;20205;-89
2022/03/08 11:14:17;;;;;;;5.87;5.37;;;;;;;;;;6041762;23;20218;-89
2022/03/08 11:16:53;;;;;;;4.03;3.73;;;;;;;;;;6065800;23;20275;-89
2022/03/08 11:19:29;;;;;;;6.73;6.13;;;;;;;;;;6041854;23;20237;-88
2022/03/08 11:22:16;;;;;;;5.30;4.77;;;;;;;;;;6065455;23;20186;-88
2022/03/08 11:25:08;;;;;;;6.17;5.67;;;;;;;;;;6041675;23;20200;-90
2022/03/08 11:28:03;;;;;;;8.57;5.50;;;;;;;;;;6066072;23;20180;-86
2022/03/08 11:30:40;;;;;;;5.70;5.20;;;;;;;;;;6041458;23;20186;-88
2022/03/08 11:33:18;;;;;;;6.33;5.23;;;;;;;;;;6045150;23;20182;-88
2022/03/08 11:35:57;;;;;;;4.87;3.73;;;;;;;;;;6043689;23;20269;-87
2022/03/08 11:39:07;;;;;;;2.80;2.60;;;;;;;;;;6065053;23;20270;-87
2022/03/08 11:44:35;;;;;;;8.07;3.83;;;;;;;;;;6043825;23;20183;-88
2022/03/08 11:47:14;;;;;;;5.97;4.13;;;;;;;;;;6043932;23;20204;-88
2022/03/08 11:49:58;;;;;;;4.07;3.47;;;;;;;;;;6044525;23;20180;-88
2022/03/08 11:52:39;;;;;;;4.07;3.50;;;;;;;;;;6043339;23;20203;-88
2022/03/08 11:55:19;;;;;;;6.60;5.77;;;;;;;;;;6045850;23;20176;-90
2022/03/08 11:57:59;;;;;;;5.37;4.03;;;;;;;;;;6049329;23;20264;-86
2022/03/08 12:00:40;;;;;;;6.60;5.10;;;;;;;;;;6077835;23;20205;-87
2022/03/08 12:03:14;;;;;;;8.37;5.17;;;;;;;;;;6048007;23;20272;-85
2022/03/08 12:05:56;;;;;;;3.90;3.53;;;;;;;;;;6030460;23;20227;-87
2022/03/08 12:08:52;;;;;;;4.80;4.40;;;;;;;;;;6017682;23;20184;-88
2022/03/08 12:11:34;;;;;;;5.13;4.63;;;;;;;;;;6010339;23;20181;-88
2022/03/08 12:14:27;;;;;;;5.27;3.53;;;;;;;;;;6016659;23;20185;-88
2022/03/08 12:17:15;;;;;;;4.53;4.13;;;;;;;;;;6019653;23;20176;-86
2022/03/08 12:19:59;;;;;;;4.73;4.30;;;;;;;;;;6018643;23;20178;-88
2022/03/08 12:22:40;;;;;;;4.70;4.30;;;;;;;;;;6014485;23;20189;-87
2022/03/08 12:25:17;;;;;;;7.47;4.10;;;;;;;;;;6014694;23;20206;-89
2022/03/08 12:27:53;;;;;;;4.43;4.03;;;;;;;;;;6014333;23;20182;-90
2022/03/08 12:30:41;;;;;;;4.70;4.30;;;;;;;;;;6014731;23;20188;-89
2022/03/08 12:34:05;;;;;;;4.57;4.17;;;;;;;;;;6003637;23;20206;-88
2022/03/08 12:37:07;;;;;;;3.47;3.17;;;;;;;;;;6014183;23;20196;-88
2022/03/08 12:39:57;;;;;;;4.70;4.30;;;;;;;;;;6013988;23;20182;-91
2022/03/08 12:45:38;;;;;;;5.03;4.60;;;;;;;;;;5994297;23;20207;-87
2022/03/08 12:48:55;;;;;;;4.97;4.53;;;;;;;;;;5993582;23;20193;-87
2022/03/08 12:52:17;;;;;;;2.23;2.03;;;;;;;;;;6010242;23;20192;-88
2022/03/08 12:55:03;;;;;;;5.50;4.97;;;;;;;;;;6016651;23;20185;-87
2022/03/08 13:01:02;;;;;;;3.37;3.07;;;;;;;;;;6013369;23;20196;-87
2022/03/08 13:03:37;;;;;;;3.47;3.17;;;;;;;;;;6013752;23;20208;-87
2022/03/08 13:06:08;;;;;;;4.97;4.47;;;;;;;;;;6016359;23;20217;-86
2022/03/08 13:08:47;;;;;;;4.20;3.80;;;;;;;;;;6013860;23;20180;-88
2022/03/08 13:11:32;;;;;;;4.63;4.23;;;;;;;;;;6013581;23;20192;-86
2022/03/08 13:14:18;;;;;;;5.83;3.90;;;;;;;;;;6013371;23;20187;-87
2022/03/08 13:17:02;;;;;;;5.17;3.57;;;;;;;;;;6014734;23;20179;-86
2022/03/08 13:19:50;;;;;;;4.70;4.00;;;;;;;;;;6014340;23;20182;-86
2022/03/08 13:37:46;;;;;;;4.60;3.80;;;;;;;;;;5882933;24;20188;-87
2022/03/08 13:41:14;;;;;;;;;;;;;;;;;;;;;
2022/03/08 13:59:35;;;;;;;7.00;6.27;;;;;;;;;;5987004;23;20229;-87
2022/03/08 14:09:39;;;;;;;6.43;3.07;;;;;;;;;;6041106;23;20239;-88
2022/03/08 15:40:26;;;;;;;4.40;3.23;;;;;;;;;;5441647;23;17950271;-91
2022/03/08 15:43:23;;;;;;;3.50;3.13;;;;;;;;;;6173962;23;20175;-89
2022/03/08 15:46:05;;;;;;;6.53;5.10;;;;;;;;;;6170395;23;20197;-91
2022/03/08 15:48:46;;;;;;;4.30;3.90;;;;;;;;;;6175332;23;20186;-92
2022/03/08 15:51:29;;;;;;;7.20;6.03;;;;;;;;;;6181820;23;20174;-91
2022/03/08 15:54:04;;;;;;;6.93;5.50;;;;;;;;;;6176887;23;20174;-92
2022/03/08 15:56:56;;;;;;;4.43;3.17;;;;;;;;;;6181486;23;20259;-92
2022/03/08 15:59:58;;;;;;;5.33;4.23;;;;;;;;;;6179172;23;20223;-86
2022/03/08 16:02:51;;;;;;;7.07;4.93;;;;;;;;;;6171981;23;20194;-87
2022/03/08 16:05:54;;;;;;;3.07;2.87;;;;;;;;;;6140852;23;20203;-87
2022/03/08 16:08:36;;;;;;;3.60;3.10;;;;;;;;;;6135641;23;20214;-85
2022/03/08 16:11:05;;;;;;;4.73;3.43;;;;;;;;;;6136658;23;20182;-87
2022/03/08 16:13:55;;;;;;;9.93;6.20;;;;;;;;;;6134282;23;20182;-87
2022/03/08 16:16:39;;;;;;;8.53;5.43;;;;;;;;;;6136753;23;20183;-86
2022/03/08 16:19:14;;;;;;;4.40;3.93;;;;;;;;;;6137431;23;20182;-87
2022/03/08 16:22:01;;;;;;;4.47;4.07;;;;;;;;;;6137080;23;20186;-86
2022/03/08 16:24:34;;;;;;;3.67;3.13;;;;;;;;;;6137081;23;20185;-87
2022/03/08 16:27:11;;;;;;;3.17;2.90;;;;;;;;;;6136807;23;20258;-86
2022/03/08 16:29:57;;;;;;;3.87;3.43;;;;;;;;;;6136586;23;20179;-86
2022/03/08 16:32:36;;;;;;;4.90;4.50;;;;;;;;;;6137359;23;20237;-87
2022/03/08 16:35:12;;;;;;;2.47;2.27;;;;;;;;;;6137749;23;20174;-88
2022/03/08 16:37:46;;;;;;;2.37;2.17;;;;;;;;;;6131718;23;20183;-87
2022/03/08 16:40:14;;;;;;;7.23;3.60;;;;;;;;;;6129239;23;20249;-87
2022/03/08 16:43:03;;;;;;;3.10;2.90;;;;;;;;;;6109868;23;20175;-87
2022/03/08 16:45:31;;;;;;;6.93;6.10;;;;;;;;;;6156135;23;20202;-87
2022/03/08 16:48:01;;;;;;;4.97;4.03;;;;;;;;;;6130084;23;20176;-87
2022/03/08 16:50:32;;;;;;;2.40;2.23;;;;;;;;;;6156383;23;20175;-86
2022/03/08 16:53:01;;;;;;;7.07;3.80;;;;;;;;;;6130560;23;20176;-87
2022/03/08 16:55:31;;;;;;;4.73;3.50;;;;;;;;;;6130002;23;20190;-85
2022/03/08 16:58:01;;;;;;;1.67;1.57;;;;;;;;;;6131035;23;20175;-86
2022/03/08 17:00:29;;;;;;;4.30;3.90;;;;;;;;;;6130103;23;20176;-85
2022/03/08 17:02:58;;;;;;;4.67;4.03;;;;;;;;;;6130294;23;20180;-86
2022/03/08 17:05:28;;;;;;;3.80;2.57;;;;;;;;;;6130223;23;20215;-85
2022/03/08 17:07:57;;;;;;;4.03;3.40;;;;;;;;;;6130372;23;20195;-86
2022/03/08 17:10:43;;;;;;;5.40;4.90;;;;;;;;;;6130049;23;20185;-85
2022/03/08 17:13:14;;;;;;;7.20;5.40;;;;;;;;;;6130325;23;20267;-85
2022/03/08 17:15:42;;;;;;;5.77;5.00;;;;;;;;;;6130415;23;20233;-85
2022/03/08 17:18:11;;;;;;;5.70;5.10;;;;;;;;;;6156076;23;20242;-85
2022/03/08 17:20:40;;;;;;;5.83;4.97;;;;;;;;;;6129885;23;20182;-85
2022/03/08 17:23:09;;;;;;;6.23;5.30;;;;;;;;;;6128580;23;20549;-85
2022/03/08 17:25:37;;;;;;;4.87;4.40;;;;;;;;;;6126279;23;20196;-85
2022/03/08 17:28:10;;;;;;;24.70;3.40;;;;;;;;;;6127747;23;20183;-85
2022/03/08 17:30:39;;;;;;;8.23;6.07;;;;;;;;;;6127966;23;20228;-86
2022/03/08 17:33:08;;;;;;;6.63;6.03;;;;;;;;;;6155301;23;20180;-85
2022/03/08 17:35:36;;;;;;;1.83;1.73;;;;;;;;;;6129443;23;20273;-85
2022/03/08 17:38:06;;;;;;;11.03;4.87;;;;;;;;;;6130330;23;20182;-85
2022/03/08 17:40:35;;;;;;;5.20;3.30;;;;;;;;;;6129803;23;20237;-85
2022/03/08 17:43:23;;;;;;;6.60;5.87;;;;;;;;;;6129808;23;20204;-86